createdAt,value
2024-01-16T00:00:51.435Z,52.40
2024-01-16T00:01:51.364Z,52.02
2024-01-16T00:02:51.423Z,52.06
2024-01-16T00:03:51.433Z,53.83
2024-01-16T00:04:51.372Z,53.75
2024-01-16T00:05:51.450Z,51.69
2024-01-16T00:06:51.442Z,52.66
2024-01-16T00:07:51.468Z,52.46
2024-01-16T00:08:51.399Z,52.74
2024-01-16T00:09:51.394Z,52.57
2024-01-16T00:10:51.429Z,54.15
2024-01-16T00:11:51.481Z,53.04
2024-01-16T00:12:51.415Z,54.22
2024-01-16T00:13:51.400Z,50.00
2024-01-16T00:14:51.468Z,52.11
2024-01-16T00:15:51.389Z,54.77
2024-01-16T00:16:51.402Z,51.44
2024-01-16T00:17:51.527Z,53.00
2024-01-16T00:18:51.512Z,53.46
2024-01-16T00:19:51.398Z,52.52
2024-01-16T00:20:51.474Z,53.85
2024-01-16T00:21:51.396Z,55.15
2024-01-16T00:22:51.426Z,52.68
2024-01-16T00:23:51.439Z,54.45
2024-01-16T00:24:51.414Z,56.21
2024-01-16T00:25:51.418Z,54.00
2024-01-16T00:26:51.465Z,51.53
2024-01-16T00:27:51.477Z,51.97
2024-01-16T00:28:51.418Z,52.52
2024-01-16T00:29:51.493Z,51.84
2024-01-16T00:30:52.274Z,51.61
2024-01-16T00:31:51.416Z,53.20
2024-01-16T00:32:51.668Z,52.68
2024-01-16T00:33:52.461Z,52.36
2024-01-16T00:34:51.428Z,54.34
2024-01-16T00:35:51.464Z,54.76
2024-01-16T00:36:51.450Z,54.32
2024-01-16T00:37:51.443Z,51.70
2024-01-16T00:38:51.642Z,51.78
2024-01-16T00:39:51.567Z,53.34
2024-01-16T00:40:51.587Z,51.87
2024-01-16T00:41:51.594Z,54.68
2024-01-16T00:42:51.547Z,54.44
2024-01-16T00:43:51.462Z,51.73
2024-01-16T00:44:51.639Z,52.67
2024-01-16T00:45:51.523Z,51.30
2024-01-16T00:46:51.476Z,53.41
2024-01-16T00:47:51.643Z,55.57
2024-01-16T00:48:51.505Z,54.24
2024-01-16T00:49:51.472Z,53.61
2024-01-16T00:50:51.521Z,56.24
2024-01-16T00:51:51.576Z,53.76
2024-01-16T00:52:51.481Z,52.27
2024-01-16T00:53:51.513Z,55.06
2024-01-16T00:54:51.537Z,55.26
2024-01-16T00:55:51.491Z,51.99
2024-01-16T00:56:51.698Z,53.51
2024-01-16T00:57:52.224Z,52.20
2024-01-16T00:58:51.491Z,53.57
2024-01-16T00:59:51.550Z,53.42
2024-01-16T01:00:51.513Z,53.14
2024-01-16T01:01:51.469Z,53.34
2024-01-16T01:02:51.584Z,50.89
2024-01-16T01:03:51.560Z,52.27
2024-01-16T01:04:51.584Z,53.12
2024-01-16T01:05:51.689Z,52.90
2024-01-16T01:06:51.497Z,53.05
2024-01-16T01:07:51.493Z,51.98
2024-01-16T01:08:51.590Z,54.58
2024-01-16T01:09:51.499Z,55.52
2024-01-16T01:10:51.563Z,55.25
2024-01-16T01:11:51.645Z,55.39
2024-01-16T01:12:51.541Z,55.52
2024-01-16T01:13:51.539Z,52.23
2024-01-16T01:14:51.773Z,53.11
2024-01-16T01:15:51.822Z,52.49
2024-01-16T01:16:51.647Z,52.65
2024-01-16T01:17:51.862Z,52.43
2024-01-16T01:18:52.353Z,53.42
2024-01-16T01:19:51.556Z,51.83
2024-01-16T01:20:51.663Z,56.66
2024-01-16T01:21:53.249Z,59.08
2024-01-16T01:22:51.569Z,51.71
2024-01-16T01:23:51.610Z,51.85
2024-01-16T01:24:51.574Z,53.43
2024-01-16T01:25:51.604Z,53.97
2024-01-16T01:26:51.855Z,51.76
2024-01-16T01:27:51.632Z,52.47
2024-01-16T01:28:52.283Z,50.40
2024-01-16T01:29:51.724Z,52.31
2024-01-16T01:30:51.721Z,51.85
2024-01-16T01:31:51.696Z,51.47
2024-01-16T01:32:52.382Z,54.31
2024-01-16T01:33:51.720Z,54.70
2024-01-16T01:34:52.324Z,51.52
2024-01-16T01:35:51.753Z,56.21
2024-01-16T01:36:51.722Z,51.94
2024-01-16T01:37:51.775Z,52.28
2024-01-16T01:38:51.831Z,51.77
2024-01-16T01:39:51.786Z,51.51
2024-01-16T01:40:52.227Z,55.71
2024-01-16T01:41:51.892Z,55.66
2024-01-16T01:42:51.744Z,53.50
2024-01-16T01:43:51.758Z,51.85
2024-01-16T01:44:51.866Z,53.15
2024-01-16T01:45:52.784Z,53.23
2024-01-16T01:46:51.810Z,53.46
2024-01-16T01:47:51.919Z,53.84
2024-01-16T01:48:51.943Z,50.59
2024-01-16T01:49:51.760Z,51.88
2024-01-16T01:50:51.936Z,53.29
2024-01-16T01:51:52.733Z,53.08
2024-01-16T01:52:51.836Z,53.32
2024-01-16T01:53:53.850Z,52.95
2024-01-16T01:54:51.886Z,53.44
2024-01-16T01:55:52.812Z,50.55
2024-01-16T01:56:53.838Z,52.02
2024-01-16T01:57:51.844Z,51.89
2024-01-16T01:58:51.926Z,51.76
2024-01-16T01:59:51.890Z,52.86
2024-01-16T02:00:51.879Z,54.42
2024-01-16T02:01:51.871Z,54.77
2024-01-16T02:02:52.020Z,53.01
2024-01-16T02:03:51.977Z,50.37
2024-01-16T02:04:51.934Z,58.67
2024-01-16T02:07:14.262Z,53.40
2024-01-16T02:07:52.770Z,53.55
2024-01-16T02:08:52.343Z,54.93
2024-01-16T02:09:51.955Z,56.65
2024-01-16T02:10:51.969Z,59.31
2024-01-16T02:11:52.042Z,62.59
2024-01-16T02:12:51.950Z,62.83
2024-01-16T02:13:51.988Z,60.74
2024-01-16T02:14:51.964Z,64.60
2024-01-16T02:15:51.953Z,58.76
2024-01-16T02:16:51.958Z,58.71
2024-01-16T02:17:52.091Z,56.79
2024-01-16T02:18:52.006Z,60.55
2024-01-16T02:19:51.983Z,56.34
2024-01-16T02:20:52.021Z,57.21
2024-01-16T02:21:51.984Z,55.81
2024-01-16T02:22:52.005Z,62.33
2024-01-16T02:23:52.118Z,55.48
2024-01-16T02:24:52.031Z,52.73
2024-01-16T02:25:51.993Z,57.28
2024-01-16T02:26:52.048Z,57.79
2024-01-16T02:27:51.988Z,58.12
2024-01-16T02:28:52.023Z,56.34
2024-01-16T02:29:52.040Z,56.41
2024-01-16T02:30:52.021Z,57.37
2024-01-16T02:31:51.994Z,55.48
2024-01-16T02:32:52.110Z,53.94
2024-01-16T02:33:52.107Z,57.01
2024-01-16T02:34:52.010Z,53.52
2024-01-16T02:35:52.012Z,53.87
2024-01-16T02:36:52.004Z,53.61
2024-01-16T02:37:51.983Z,54.91
2024-01-16T02:38:52.121Z,53.93
2024-01-16T02:39:52.019Z,54.64
2024-01-16T02:40:52.000Z,55.35
2024-01-16T02:41:52.053Z,55.64
2024-01-16T02:42:52.002Z,53.20
2024-01-16T02:43:52.018Z,54.48
2024-01-16T02:44:52.078Z,55.41
2024-01-16T02:45:52.032Z,54.60
2024-01-16T02:46:52.048Z,55.38
2024-01-16T02:47:52.139Z,56.23
2024-01-16T02:48:52.031Z,53.10
2024-01-16T02:49:52.020Z,53.98
2024-01-16T02:50:52.078Z,53.70
2024-01-16T02:51:52.255Z,52.83
2024-01-16T02:52:52.038Z,54.01
2024-01-16T02:53:52.088Z,53.04
2024-01-16T02:54:52.054Z,51.70
2024-01-16T02:55:52.042Z,53.11
2024-01-16T02:56:52.155Z,56.21
2024-01-16T02:57:52.049Z,50.47
2024-01-16T02:58:52.094Z,53.94
2024-01-16T02:59:52.132Z,54.73
2024-01-16T03:00:52.114Z,54.15
2024-01-16T03:01:52.110Z,56.13
2024-01-16T03:02:52.259Z,53.76
2024-01-16T03:03:52.208Z,54.09
2024-01-16T03:04:52.177Z,53.54
2024-01-16T03:05:52.304Z,54.47
2024-01-16T03:06:52.307Z,52.00
2024-01-16T03:07:52.210Z,52.39
2024-01-16T03:08:52.351Z,54.75
2024-01-16T03:09:52.290Z,54.96
2024-01-16T03:10:52.251Z,53.90
2024-01-16T03:11:52.356Z,51.07
2024-01-16T03:12:52.285Z,55.86
2024-01-16T03:13:52.350Z,55.34
2024-01-16T03:14:52.369Z,53.78
2024-01-16T03:15:52.373Z,52.74
2024-01-16T03:16:52.376Z,52.01
2024-01-16T03:17:52.468Z,52.27
2024-01-16T03:18:52.507Z,53.09
2024-01-16T03:19:52.440Z,50.69
2024-01-16T03:20:52.561Z,54.31
2024-01-16T03:21:52.497Z,53.31
2024-01-16T03:22:52.497Z,52.57
2024-01-16T03:23:52.576Z,52.72
2024-01-16T03:24:52.546Z,50.77
2024-01-16T03:25:52.576Z,53.72
2024-01-16T03:26:52.639Z,52.19
2024-01-16T03:27:52.624Z,56.42
2024-01-16T03:28:52.635Z,54.38
2024-01-16T03:29:52.798Z,50.59
2024-01-16T03:30:52.701Z,51.28
2024-01-16T03:31:52.694Z,53.40
2024-01-16T03:32:52.767Z,51.34
2024-01-16T03:33:52.853Z,52.28
2024-01-16T03:34:52.754Z,52.76
2024-01-16T03:35:52.908Z,55.31
2024-01-16T03:36:52.833Z,53.31
2024-01-16T03:37:52.857Z,54.83
2024-01-16T03:38:52.946Z,54.70
2024-01-16T03:39:53.117Z,52.56
2024-01-16T03:40:52.989Z,50.37
2024-01-16T03:41:53.021Z,52.86
2024-01-16T03:42:53.023Z,52.61
2024-01-16T03:43:53.054Z,54.24
2024-01-16T03:44:53.106Z,53.53
2024-01-16T03:45:53.092Z,53.61
2024-01-16T03:46:53.135Z,51.79
2024-01-16T03:47:53.261Z,53.41
2024-01-16T03:48:53.281Z,51.29
2024-01-16T03:49:53.184Z,51.68
2024-01-16T03:50:53.235Z,51.60
2024-01-16T03:51:53.263Z,54.81
2024-01-16T03:52:53.237Z,53.04
2024-01-16T03:53:53.304Z,50.38
2024-01-16T03:54:53.274Z,53.89
2024-01-16T03:55:53.293Z,53.23
2024-01-16T03:56:53.364Z,54.47
2024-01-16T03:57:53.315Z,57.39
2024-01-16T03:58:53.365Z,54.99
2024-01-16T03:59:53.402Z,54.00
2024-01-16T04:00:53.422Z,56.20
2024-01-16T04:01:53.379Z,56.65
2024-01-16T04:02:53.441Z,58.34
2024-01-16T04:03:53.437Z,56.52
2024-01-16T04:04:53.463Z,53.21
2024-01-16T04:05:53.603Z,52.29
2024-01-16T04:06:53.515Z,54.69
2024-01-16T04:07:53.576Z,55.52
2024-01-16T04:08:53.533Z,54.57
2024-01-16T04:09:55.362Z,55.10
2024-01-16T04:10:53.566Z,54.71
2024-01-16T04:11:53.554Z,51.65
2024-01-16T04:12:53.573Z,51.26
2024-01-16T04:13:53.592Z,52.68
2024-01-16T04:14:53.596Z,56.62
2024-01-16T04:15:53.614Z,54.52
2024-01-16T04:16:53.638Z,57.57
2024-01-16T04:17:53.618Z,52.90
2024-01-16T04:18:53.782Z,52.02
2024-01-16T04:19:53.657Z,55.04
2024-01-16T04:20:53.792Z,53.08
2024-01-16T04:21:53.703Z,53.44
2024-01-16T04:22:53.680Z,55.70
2024-01-16T04:23:53.764Z,54.96
2024-01-16T04:24:53.722Z,53.61
2024-01-16T04:25:53.724Z,54.31
2024-01-16T04:26:53.787Z,51.35
2024-01-16T04:27:53.759Z,52.55
2024-01-16T04:28:53.788Z,51.45
2024-01-16T04:29:53.816Z,52.54
2024-01-16T04:30:53.869Z,52.40
2024-01-16T04:31:53.800Z,53.33
2024-01-16T04:32:53.938Z,53.76
2024-01-16T04:33:53.915Z,50.43
2024-01-16T04:34:53.836Z,55.72
2024-01-16T04:35:53.878Z,52.16
2024-01-16T04:36:53.866Z,51.16
2024-01-16T04:37:53.906Z,53.37
2024-01-16T04:38:53.949Z,53.47
2024-01-16T04:39:53.934Z,50.41
2024-01-16T04:40:53.912Z,50.00
2024-01-16T04:41:53.974Z,50.87
2024-01-16T04:42:53.933Z,52.05
2024-01-16T04:43:53.970Z,51.69
2024-01-16T04:44:54.053Z,50.67
2024-01-16T04:45:54.008Z,53.99
2024-01-16T04:46:53.997Z,52.82
2024-01-16T04:47:54.101Z,52.10
2024-01-16T04:48:54.190Z,51.08
2024-01-16T04:49:54.030Z,52.56
2024-01-16T04:50:54.103Z,51.44
2024-01-16T04:51:54.050Z,51.75
2024-01-16T04:52:54.606Z,51.57
2024-01-16T04:53:54.169Z,52.71
2024-01-16T04:55:01.488Z,50.00
2024-01-16T04:56:01.446Z,50.00
2024-01-16T04:57:01.472Z,50.00
2024-01-16T04:58:01.516Z,50.00
2024-01-16T04:59:01.461Z,50.00
2024-01-16T05:00:01.528Z,55.59
2024-01-16T05:01:01.503Z,50.05
2024-01-16T05:02:01.463Z,53.01
2024-01-16T05:03:01.494Z,50.53
2024-01-16T05:04:01.585Z,51.08
2024-01-16T05:05:01.470Z,57.86
2024-01-16T05:06:01.612Z,50.95
2024-01-16T05:07:01.476Z,54.20
2024-01-16T05:08:01.506Z,57.18
2024-01-16T05:09:01.561Z,53.15
2024-01-16T05:10:01.497Z,53.80
2024-01-16T05:11:01.488Z,52.56
2024-01-16T05:12:01.489Z,53.48
2024-01-16T05:13:01.507Z,51.41
2024-01-16T05:14:01.511Z,51.34
2024-01-16T05:15:01.506Z,52.02
2024-01-16T05:16:01.520Z,53.71
2024-01-16T05:17:01.496Z,55.38
2024-01-16T05:18:01.679Z,52.81
2024-01-16T05:19:01.593Z,52.05
2024-01-16T05:20:01.501Z,54.39
2024-01-16T05:21:01.577Z,52.56
2024-01-16T05:22:01.509Z,54.50
2024-01-16T05:23:01.494Z,55.19
2024-01-16T05:24:01.525Z,54.54
2024-01-16T05:25:01.502Z,52.94
2024-01-16T05:26:01.503Z,53.30
2024-01-16T05:27:01.502Z,51.72
2024-01-16T05:28:01.494Z,52.30
2024-01-16T05:29:01.509Z,50.48
2024-01-16T05:30:01.584Z,51.06
2024-01-16T05:31:01.666Z,53.62
2024-01-16T05:32:01.537Z,50.89
2024-01-16T05:33:01.583Z,56.62
2024-01-16T05:34:01.630Z,54.99
2024-01-16T05:35:01.525Z,55.07
2024-01-16T05:36:01.605Z,51.26
2024-01-16T05:37:01.515Z,54.07
2024-01-16T05:38:01.518Z,53.08
2024-01-16T05:39:01.542Z,52.28
2024-01-16T05:40:01.525Z,54.34
2024-01-16T05:41:01.527Z,53.47
2024-01-16T05:42:01.573Z,53.03
2024-01-16T05:43:01.526Z,54.38
2024-01-16T05:44:01.531Z,59.45
2024-01-16T05:45:01.562Z,54.67
2024-01-16T05:46:01.524Z,53.44
2024-01-16T05:47:01.546Z,51.54
2024-01-16T05:48:01.603Z,53.77
2024-01-16T05:49:01.712Z,53.40
2024-01-16T05:50:01.606Z,54.07
2024-01-16T05:51:01.604Z,51.19
2024-01-16T05:52:01.579Z,50.83
2024-01-16T05:53:01.566Z,51.40
2024-01-16T05:54:01.533Z,52.93
2024-01-16T05:55:01.553Z,54.77
2024-01-16T05:56:01.572Z,54.81
2024-01-16T05:57:01.538Z,52.87
2024-01-16T05:58:01.543Z,53.66
2024-01-16T05:59:01.553Z,52.28
2024-01-16T06:00:01.570Z,55.67
2024-01-16T06:01:01.645Z,51.42
2024-01-16T06:02:01.547Z,53.45
2024-01-16T06:03:01.555Z,51.73
2024-01-16T06:04:01.574Z,53.89
2024-01-16T06:05:01.566Z,55.09
2024-01-16T06:06:01.887Z,51.75
2024-01-16T06:07:01.632Z,50.91
2024-01-16T06:08:01.598Z,53.85
2024-01-16T06:09:01.603Z,57.16
2024-01-16T06:10:01.602Z,52.65
2024-01-16T06:11:01.595Z,54.90
2024-01-16T06:12:01.641Z,55.89
2024-01-16T06:13:01.597Z,54.86
2024-01-16T06:14:01.678Z,59.36
2024-01-16T06:15:01.705Z,56.71
2024-01-16T06:16:01.621Z,64.16
2024-01-16T06:17:01.602Z,61.24
2024-01-16T06:18:01.840Z,64.28
2024-01-16T06:19:01.717Z,64.94
2024-01-16T06:20:01.628Z,66.97
2024-01-16T06:21:01.776Z,67.76
2024-01-16T06:22:01.662Z,68.49
2024-01-16T06:23:01.599Z,72.78
2024-01-16T06:24:01.633Z,71.16
2024-01-16T06:25:01.636Z,70.19
2024-01-16T06:26:01.805Z,71.79
2024-01-16T06:27:01.667Z,73.25
2024-01-16T06:28:04.215Z,72.98
2024-01-16T06:29:01.660Z,72.46
2024-01-16T06:30:01.681Z,74.74
2024-01-16T06:31:01.741Z,75.79
2024-01-16T06:32:01.627Z,74.87
2024-01-16T06:33:01.720Z,76.13
2024-01-16T06:34:02.271Z,74.87
2024-01-16T06:35:01.723Z,70.86
2024-01-16T06:36:01.764Z,66.73
2024-01-16T06:37:01.636Z,61.99
2024-01-16T06:38:01.670Z,50.04
2024-01-16T06:39:01.656Z,64.82
2024-01-16T06:40:01.626Z,65.27
2024-01-16T06:41:01.898Z,73.16
2024-01-16T06:42:01.632Z,79.90
2024-01-16T06:43:01.678Z,82.26
2024-01-16T06:44:01.686Z,87.64
2024-01-16T06:45:01.691Z,97.28
2024-01-16T06:46:02.168Z,91.38
2024-01-16T06:47:01.727Z,92.02
2024-01-16T06:48:01.766Z,97.08
2024-01-16T06:49:02.272Z,99.76
2024-01-16T06:50:01.680Z,106.78
2024-01-16T06:51:02.658Z,109.42
2024-01-16T06:52:01.641Z,115.74
2024-01-16T06:53:01.668Z,114.84
2024-01-16T06:54:01.719Z,119.49
2024-01-16T06:55:01.641Z,118.64
2024-01-16T06:56:01.657Z,119.07
2024-01-16T06:57:01.723Z,123.79
2024-01-16T06:58:01.671Z,121.02
2024-01-16T06:59:01.668Z,120.66
2024-01-16T07:00:01.825Z,122.22
2024-01-16T07:01:01.696Z,121.73
2024-01-16T07:02:01.673Z,124.07
2024-01-16T07:03:01.661Z,120.83
2024-01-16T07:04:01.735Z,122.26
2024-01-16T07:05:01.689Z,125.61
2024-01-16T07:06:01.856Z,124.58
2024-01-16T07:07:01.684Z,126.05
2024-01-16T07:08:01.719Z,126.57
2024-01-16T07:09:01.681Z,126.91
2024-01-16T07:10:02.113Z,126.38
2024-01-16T07:11:01.688Z,127.03
2024-01-16T07:12:02.685Z,125.72
2024-01-16T07:13:01.718Z,126.39
2024-01-16T07:14:01.733Z,127.13
2024-01-16T07:15:01.804Z,127.68
2024-01-16T07:16:01.736Z,124.10
2024-01-16T07:17:01.688Z,127.57
2024-01-16T07:18:01.791Z,125.25
2024-01-16T07:19:01.792Z,125.38
2024-01-16T07:20:02.101Z,124.49
2024-01-16T07:21:01.744Z,125.34
2024-01-16T07:22:01.693Z,126.42
2024-01-16T07:23:01.686Z,126.95
2024-01-16T07:24:01.716Z,125.89
2024-01-16T07:25:01.727Z,127.71
2024-01-16T07:26:03.588Z,128.58
2024-01-16T07:27:01.713Z,128.64
2024-01-16T07:28:01.734Z,129.07
2024-01-16T07:29:01.739Z,130.16
2024-01-16T07:30:01.728Z,131.29
2024-01-16T07:31:01.741Z,131.45
2024-01-16T07:32:01.749Z,133.42
2024-01-16T07:33:01.788Z,139.51
2024-01-16T07:34:01.794Z,139.04
2024-01-16T07:35:01.830Z,139.66
2024-01-16T07:36:01.844Z,139.98
2024-01-16T07:37:01.709Z,141.50
2024-01-16T07:38:04.556Z,139.14
2024-01-16T07:39:01.845Z,139.12
2024-01-16T07:40:01.803Z,139.14
2024-01-16T07:41:01.720Z,141.71
2024-01-16T07:42:01.926Z,145.59
2024-01-16T07:43:01.753Z,159.04
2024-01-16T07:44:01.767Z,163.33
2024-01-16T07:45:01.796Z,162.80
2024-01-16T07:46:01.781Z,163.43
2024-01-16T07:47:01.752Z,163.57
2024-01-16T07:48:01.794Z,166.01
2024-01-16T07:49:01.898Z,165.21
2024-01-16T07:50:03.814Z,162.66
2024-01-16T07:51:01.823Z,162.27
2024-01-16T07:52:01.751Z,160.65
2024-01-16T07:53:01.767Z,157.55
2024-01-16T07:54:01.920Z,155.46
2024-01-16T07:55:01.739Z,154.91
2024-01-16T07:56:01.823Z,151.61
2024-01-16T07:57:01.842Z,150.39
2024-01-16T07:58:01.951Z,148.50
2024-01-16T07:59:01.756Z,148.64
2024-01-16T08:00:01.968Z,148.12
2024-01-16T08:01:01.783Z,144.79
2024-01-16T08:02:01.802Z,146.50
2024-01-16T08:03:01.812Z,147.59
2024-01-16T08:04:02.054Z,146.03
2024-01-16T08:05:01.775Z,143.46
2024-01-16T08:06:01.992Z,142.21
2024-01-16T08:07:01.769Z,143.36
2024-01-16T08:08:01.766Z,143.21
2024-01-16T08:09:01.959Z,142.69
2024-01-16T08:10:01.891Z,139.52
2024-01-16T08:11:01.812Z,140.78
2024-01-16T08:12:01.840Z,138.03
2024-01-16T08:13:01.822Z,137.36
2024-01-16T08:14:01.876Z,138.53
2024-01-16T08:15:02.199Z,136.55
2024-01-16T08:16:02.613Z,136.05
2024-01-16T08:17:01.797Z,137.32
2024-01-16T08:18:01.987Z,137.10
2024-01-16T08:19:01.974Z,132.45
2024-01-16T08:20:01.826Z,132.87
2024-01-16T08:21:01.860Z,134.73
2024-01-16T08:22:01.819Z,137.04
2024-01-16T08:23:01.823Z,133.27
2024-01-16T08:24:01.894Z,136.82
2024-01-16T08:25:01.871Z,134.47
2024-01-16T08:26:01.841Z,133.45
2024-01-16T08:27:01.836Z,130.55
2024-01-16T08:28:01.847Z,135.91
2024-01-16T08:29:01.906Z,131.32
2024-01-16T08:30:01.959Z,134.93
2024-01-16T08:31:01.930Z,136.39
2024-01-16T08:32:01.863Z,135.40
2024-01-16T08:33:02.009Z,136.33
2024-01-16T08:34:02.063Z,138.36
2024-01-16T08:35:01.882Z,138.93
2024-01-16T08:36:02.696Z,143.91
2024-01-16T08:37:01.855Z,149.93
2024-01-16T08:38:01.914Z,152.55
2024-01-16T08:39:01.935Z,152.46
2024-01-16T08:40:01.866Z,151.56
2024-01-16T08:41:01.905Z,154.11
2024-01-16T08:42:01.904Z,152.87
2024-01-16T08:43:01.889Z,150.25
2024-01-16T08:44:01.898Z,149.23
2024-01-16T08:45:02.082Z,148.38
2024-01-16T08:46:01.875Z,151.34
2024-01-16T08:47:01.886Z,149.90
2024-01-16T08:48:02.099Z,150.46
2024-01-16T08:49:01.965Z,150.05
2024-01-16T08:50:01.887Z,148.21
2024-01-16T08:51:02.678Z,146.34
2024-01-16T08:52:03.661Z,146.99
2024-01-16T08:53:01.914Z,144.90
2024-01-16T08:54:01.993Z,143.82
2024-01-16T08:55:01.923Z,145.04
2024-01-16T08:56:01.937Z,141.00
2024-01-16T08:57:01.917Z,140.18
2024-01-16T08:58:01.911Z,142.00
2024-01-16T08:59:01.915Z,140.27
2024-01-16T09:00:02.239Z,138.98
2024-01-16T09:01:01.945Z,137.27
2024-01-16T09:02:01.895Z,135.51
2024-01-16T09:03:04.938Z,133.86
2024-01-16T09:04:01.953Z,135.32
2024-01-16T09:05:02.325Z,132.07
2024-01-16T09:06:02.418Z,132.79
2024-01-16T09:07:02.260Z,134.36
2024-01-16T09:08:01.915Z,136.32
2024-01-16T09:09:02.007Z,134.72
2024-01-16T09:10:01.938Z,133.07
2024-01-16T09:11:01.941Z,133.91
2024-01-16T09:12:01.925Z,136.10
2024-01-16T09:13:01.928Z,137.66
2024-01-16T09:14:04.610Z,137.02
2024-01-16T09:15:02.035Z,137.02
2024-01-16T09:16:01.949Z,137.06
2024-01-16T09:17:01.932Z,137.64
2024-01-16T09:18:02.116Z,137.62
2024-01-16T09:19:02.063Z,139.67
2024-01-16T09:20:01.935Z,143.20
2024-01-16T09:21:02.047Z,144.03
2024-01-16T09:22:01.928Z,141.95
2024-01-16T09:23:01.960Z,141.89
2024-01-16T09:24:02.030Z,138.16
2024-01-16T09:25:01.968Z,140.91
2024-01-16T09:26:01.955Z,145.91
2024-01-16T09:27:01.976Z,152.13
2024-01-16T09:28:01.987Z,156.94
2024-01-16T09:29:01.943Z,164.34
2024-01-16T09:30:02.285Z,167.61
2024-01-16T09:31:02.166Z,169.20
2024-01-16T09:32:02.022Z,166.69
2024-01-16T09:33:02.132Z,170.11
2024-01-16T09:34:04.103Z,170.31
2024-01-16T09:35:02.270Z,170.38
2024-01-16T09:36:02.870Z,170.34
2024-01-16T09:37:02.016Z,170.51
2024-01-16T09:38:01.979Z,167.58
2024-01-16T09:39:02.094Z,170.98
2024-01-16T09:40:02.222Z,168.52
2024-01-16T09:41:02.026Z,159.52
2024-01-16T09:42:02.031Z,154.58
2024-01-16T09:43:01.975Z,151.12
2024-01-16T09:44:01.981Z,148.16
2024-01-16T09:45:02.089Z,146.89
2024-01-16T09:46:03.416Z,150.12
2024-01-16T09:47:01.964Z,150.10
2024-01-16T09:48:02.319Z,147.26
2024-01-16T09:49:02.012Z,142.42
2024-01-16T09:50:02.179Z,136.78
2024-01-16T09:51:02.054Z,133.94
2024-01-16T09:52:01.980Z,131.95
2024-01-16T09:53:02.051Z,126.10
2024-01-16T09:54:02.057Z,124.55
2024-01-16T09:55:02.181Z,124.90
2024-01-16T09:56:02.002Z,122.39
2024-01-16T09:57:02.129Z,120.50
2024-01-16T09:58:02.011Z,120.14
2024-01-16T09:59:01.995Z,119.24
2024-01-16T10:00:02.103Z,118.49
2024-01-16T10:01:02.062Z,113.94
2024-01-16T10:02:02.075Z,112.98
2024-01-16T10:03:02.172Z,115.94
2024-01-16T10:04:02.057Z,112.96
2024-01-16T10:05:02.019Z,113.55
2024-01-16T10:06:02.209Z,111.56
2024-01-16T10:07:02.069Z,113.67
2024-01-16T10:08:02.030Z,114.94
2024-01-16T10:09:02.147Z,112.63
2024-01-16T10:10:02.025Z,110.57
2024-01-16T10:11:02.002Z,111.40
2024-01-16T10:12:02.117Z,109.67
2024-01-16T10:13:02.065Z,112.22
2024-01-16T10:14:02.025Z,110.73
2024-01-16T10:15:02.113Z,109.15
2024-01-16T10:16:02.665Z,106.93
2024-01-16T10:17:02.111Z,104.96
2024-01-16T10:18:02.399Z,99.32
2024-01-16T10:19:02.380Z,103.77
2024-01-16T10:20:02.455Z,107.06
2024-01-16T10:21:02.517Z,115.85
2024-01-16T10:22:02.458Z,118.00
2024-01-16T10:23:02.533Z,121.00
2024-01-16T10:24:02.678Z,119.81
2024-01-16T10:25:02.676Z,116.49
2024-01-16T10:26:02.764Z,119.00
2024-01-16T10:27:02.933Z,116.11
2024-01-16T10:28:02.916Z,119.89
2024-01-16T10:29:02.964Z,114.83
2024-01-16T10:30:03.095Z,110.20
2024-01-16T10:31:03.299Z,104.32
2024-01-16T10:32:03.182Z,101.84
2024-01-16T10:33:03.320Z,99.45
2024-01-16T10:34:03.327Z,100.54
2024-01-16T10:35:03.421Z,111.80
2024-01-16T10:36:03.329Z,118.35
2024-01-16T10:37:03.380Z,123.75
2024-01-16T10:38:03.453Z,122.91
2024-01-16T10:39:03.487Z,129.70
2024-01-16T10:40:03.697Z,134.30
2024-01-16T10:41:03.600Z,138.21
2024-01-16T10:42:03.662Z,136.57
2024-01-16T10:43:03.703Z,136.73
2024-01-16T10:44:03.783Z,135.84
2024-01-16T10:45:03.847Z,134.12
2024-01-16T10:46:03.909Z,136.30
2024-01-16T10:47:03.993Z,136.34
2024-01-16T10:48:04.565Z,139.34
2024-01-16T10:49:04.386Z,141.42
2024-01-16T10:50:04.233Z,142.99
2024-01-16T10:51:04.260Z,142.92
2024-01-16T10:52:04.334Z,147.22
2024-01-16T10:53:04.391Z,149.61
2024-01-16T10:54:04.641Z,153.06
2024-01-16T10:55:04.494Z,156.96
2024-01-16T10:56:04.575Z,159.32
2024-01-16T10:57:04.619Z,162.50
2024-01-16T10:58:04.735Z,165.21
2024-01-16T10:59:04.711Z,168.00
2024-01-16T11:00:05.199Z,168.83
2024-01-16T11:01:04.788Z,167.83
2024-01-16T11:02:04.804Z,164.36
2024-01-16T11:03:04.827Z,159.88
2024-01-16T11:04:04.900Z,156.80
2024-01-16T11:05:05.260Z,157.02
2024-01-16T11:06:05.219Z,155.16
2024-01-16T11:07:05.101Z,156.15
2024-01-16T11:08:05.187Z,156.78
2024-01-16T11:09:06.953Z,156.83
2024-01-16T11:10:05.299Z,153.89
2024-01-16T11:11:05.347Z,155.13
2024-01-16T11:12:05.364Z,155.05
2024-01-16T11:13:05.421Z,154.39
2024-01-16T11:14:05.505Z,153.52
2024-01-16T11:15:05.578Z,151.40
2024-01-16T11:16:05.617Z,150.65
2024-01-16T11:17:05.621Z,148.50
2024-01-16T11:18:05.726Z,149.50
2024-01-16T11:19:24.567Z,147.66
2024-01-16T11:20:20.965Z,147.68
2024-01-16T11:21:09.152Z,147.77
2024-01-16T11:22:06.803Z,147.87
2024-01-16T11:23:05.773Z,149.14
2024-01-16T11:24:05.727Z,151.11
2024-01-16T11:25:05.711Z,158.38
2024-01-16T11:26:05.742Z,167.54
2024-01-16T11:27:05.840Z,170.02
2024-01-16T11:28:05.728Z,173.65
2024-01-16T11:29:05.752Z,176.32
2024-01-16T11:30:05.988Z,173.04
2024-01-16T11:31:05.773Z,176.27
2024-01-16T11:32:18.020Z,176.07
2024-01-16T11:33:06.881Z,176.16
2024-01-16T11:34:06.041Z,176.95
2024-01-16T11:35:05.826Z,179.13
2024-01-16T11:36:05.808Z,183.30
2024-01-16T11:37:05.734Z,193.26
2024-01-16T11:38:05.762Z,195.12
2024-01-16T11:39:05.748Z,193.72
2024-01-16T11:40:05.810Z,194.47
2024-01-16T11:41:05.760Z,195.93
2024-01-16T11:42:05.796Z,195.86
2024-01-16T11:43:05.764Z,193.50
2024-01-16T11:44:05.791Z,196.40
2024-01-16T11:45:05.967Z,195.36
2024-01-16T11:46:05.944Z,193.05
2024-01-16T11:47:05.915Z,193.08
2024-01-16T11:48:06.014Z,190.00
2024-01-16T11:49:06.233Z,190.59
2024-01-16T11:50:06.310Z,186.73
2024-01-16T11:51:06.109Z,185.54
2024-01-16T11:52:06.052Z,181.91
2024-01-16T11:53:06.097Z,179.27
2024-01-16T11:54:06.163Z,195.64
2024-01-16T11:55:06.302Z,199.17
2024-01-16T11:56:06.256Z,194.98
2024-01-16T11:57:06.290Z,189.11
2024-01-16T11:58:06.330Z,187.82
2024-01-16T11:59:06.359Z,187.33
2024-01-16T12:00:06.468Z,185.11
2024-01-16T12:01:06.463Z,182.78
2024-01-16T12:02:06.486Z,191.60
2024-01-16T12:03:09.165Z,192.71
2024-01-16T12:04:06.552Z,187.82
2024-01-16T12:05:06.565Z,177.68
2024-01-16T12:06:06.646Z,195.60
2024-01-16T12:07:06.592Z,198.30
2024-01-16T12:08:06.541Z,190.82
2024-01-16T12:09:06.547Z,188.33
2024-01-16T12:10:06.553Z,183.78
2024-01-16T12:11:06.589Z,182.29
2024-01-16T12:12:06.656Z,182.11
2024-01-16T12:13:06.570Z,179.17
2024-01-16T12:14:06.549Z,177.57
2024-01-16T12:15:06.577Z,174.64
2024-01-16T12:16:06.686Z,169.82
2024-01-16T12:17:06.573Z,166.07
2024-01-16T12:18:09.229Z,161.17
2024-01-16T12:19:06.721Z,158.53
2024-01-16T12:20:08.427Z,153.32
2024-01-16T12:21:06.612Z,147.49
2024-01-16T12:22:06.569Z,143.66
2024-01-16T12:23:06.617Z,138.65
2024-01-16T12:24:11.033Z,134.28
2024-01-16T12:25:07.604Z,132.88
2024-01-16T12:26:06.568Z,130.29
2024-01-16T12:27:06.585Z,125.27
2024-01-16T12:28:07.585Z,123.59
2024-01-16T12:29:06.615Z,121.06
2024-01-16T12:30:06.631Z,118.19
2024-01-16T12:31:06.714Z,115.46
2024-01-16T12:32:06.610Z,115.42
2024-01-16T12:33:11.040Z,113.32
2024-01-16T12:34:06.739Z,113.35
2024-01-16T12:35:06.701Z,113.43
2024-01-16T12:36:07.123Z,110.43
2024-01-16T12:37:06.600Z,107.14
2024-01-16T12:38:06.594Z,106.14
2024-01-16T12:39:06.803Z,101.45
2024-01-16T12:40:06.637Z,100.55
2024-01-16T12:41:06.623Z,93.36
2024-01-16T12:42:06.664Z,90.21
2024-01-16T12:43:06.609Z,86.40